createdAt,value
2023-04-20T00:02:18.102Z,2.66
2023-04-20T00:04:44.625Z,2.63
2023-04-20T00:07:11.149Z,2.66
2023-04-20T00:09:37.710Z,2.57
2023-04-20T00:12:04.524Z,2.43
2023-04-20T00:14:31.018Z,2.41
2023-04-20T00:16:57.627Z,2.20
2023-04-20T00:19:24.126Z,1.93
2023-04-20T00:21:50.631Z,1.74
2023-04-20T00:24:17.132Z,1.93
2023-04-20T00:26:43.610Z,1.86
2023-04-20T00:29:10.069Z,1.70
2023-04-20T00:31:36.909Z,1.77
2023-04-20T00:34:03.400Z,1.61
2023-04-20T00:36:30.042Z,1.43
2023-04-20T00:38:59.029Z,1.38
2023-04-20T00:41:28.437Z,1.59
2023-04-20T00:43:55.025Z,1.70
2023-04-20T00:46:21.893Z,1.44
2023-04-20T00:48:51.752Z,1.31
2023-04-20T00:51:19.355Z,1.16
2023-04-20T00:53:45.980Z,1.09
2023-04-20T00:56:19.452Z,1.29
2023-04-20T00:58:46.699Z,1.27
2023-04-20T01:01:17.675Z,1.29
2023-04-20T01:03:46.360Z,1.06
2023-04-20T01:06:14.622Z,1.12
2023-04-20T01:08:48.873Z,1.26
2023-04-20T01:11:15.488Z,1.27
2023-04-20T01:13:42.865Z,1.18
2023-04-20T01:16:09.566Z,1.10
2023-04-20T01:18:48.209Z,1.02
2023-04-20T01:21:17.250Z,0.84
2023-04-20T01:23:44.854Z,0.90
2023-04-20T01:26:14.869Z,0.90
2023-04-20T01:28:41.802Z,0.73
2023-04-20T01:31:09.590Z,0.63
2023-04-20T01:33:36.686Z,0.66
2023-04-20T01:36:05.043Z,0.54
2023-04-20T01:38:34.445Z,0.52
2023-04-20T01:41:04.362Z,0.72
2023-04-20T01:43:31.605Z,0.81
2023-04-20T01:45:59.779Z,0.72
2023-04-20T01:48:26.395Z,0.78
2023-04-20T01:50:53.620Z,0.55
2023-04-20T01:53:20.356Z,0.43
2023-04-20T01:55:47.574Z,0.37
2023-04-20T01:58:14.387Z,0.33
2023-04-20T02:00:41.039Z,0.31
2023-04-20T02:03:07.645Z,0.33
2023-04-20T02:05:34.188Z,0.43
2023-04-20T02:08:00.680Z,0.45
2023-04-20T02:10:27.159Z,0.34
2023-04-20T02:12:53.607Z,0.11
2023-04-20T02:15:20.152Z,-0.04
2023-04-20T02:17:47.348Z,-0.03
2023-04-20T02:20:14.523Z,0.04
2023-04-20T02:22:40.975Z,0.11
2023-04-20T02:25:08.859Z,0.12
2023-04-20T02:27:36.831Z,0.09
2023-04-20T02:30:05.822Z,-0.02
2023-04-20T02:32:33.103Z,0.01
2023-04-20T02:34:59.559Z,-0.10
2023-04-20T02:37:27.240Z,-0.10
2023-04-20T02:39:53.741Z,-0.12
2023-04-20T02:42:20.215Z,-0.21
2023-04-20T02:44:48.230Z,-0.11
2023-04-20T02:47:15.368Z,-0.31
2023-04-20T02:49:41.957Z,-0.23
2023-04-20T02:52:08.635Z,-0.18
2023-04-20T02:54:35.133Z,-0.22
2023-04-20T02:57:03.419Z,-0.27
2023-04-20T02:59:29.864Z,-0.32
2023-04-20T03:02:04.908Z,-0.26
2023-04-20T03:04:32.076Z,-0.08
2023-04-20T03:07:25.030Z,-0.11
2023-04-20T03:09:52.238Z,0.00
2023-04-20T03:12:22.967Z,-0.12
2023-04-20T03:15:28.315Z,-0.44
2023-04-20T03:18:03.817Z,-0.10
2023-04-20T03:20:30.744Z,0.10
2023-04-20T03:22:57.208Z,0.20
2023-04-20T03:25:25.105Z,0.15
2023-04-20T03:27:55.669Z,-0.20
2023-04-20T03:30:22.184Z,-0.31
2023-04-20T03:32:54.336Z,-0.23
2023-04-20T03:35:21.001Z,-0.31
2023-04-20T03:37:47.790Z,-0.32
2023-04-20T03:40:14.420Z,-0.40
2023-04-20T03:42:41.392Z,-0.44
2023-04-20T03:45:08.445Z,-0.56
2023-04-20T03:47:35.102Z,-0.65
2023-04-20T03:50:01.603Z,-0.77
2023-04-20T03:52:28.108Z,-0.68
2023-04-20T03:54:55.304Z,-0.40
2023-04-20T03:57:21.915Z,-0.50
2023-04-20T03:59:48.632Z,-0.52
2023-04-20T04:02:18.691Z,-0.65
2023-04-20T04:04:46.773Z,-0.79
2023-04-20T04:07:13.573Z,-0.97
2023-04-20T04:09:41.813Z,-1.09
2023-04-20T04:12:09.108Z,-1.04
2023-04-20T04:14:35.700Z,-1.13
2023-04-20T04:17:02.553Z,-1.04
2023-04-20T04:19:32.184Z,-1.23
2023-04-20T04:21:59.673Z,-1.22
2023-04-20T04:24:26.815Z,-1.06
2023-04-20T04:27:02.143Z,-1.00
2023-04-20T04:29:28.926Z,-1.04
2023-04-20T04:32:04.152Z,-1.18
2023-04-20T04:34:34.749Z,-1.19
2023-04-20T04:37:02.436Z,-1.01
2023-04-20T04:39:39.758Z,-1.07
2023-04-20T04:42:13.473Z,-0.89
2023-04-20T04:44:42.681Z,-0.92
2023-04-20T04:47:14.262Z,-0.80
2023-04-20T04:49:41.017Z,-0.91
2023-04-20T04:52:09.004Z,-0.83
2023-04-20T04:54:35.834Z,-0.67
2023-04-20T04:57:02.910Z,-0.65
2023-04-20T04:59:29.445Z,-0.63
2023-04-20T05:01:56.310Z,-0.66
2023-04-20T05:04:23.139Z,-0.65
2023-04-20T05:06:49.657Z,-0.45
2023-04-20T05:09:16.560Z,-0.36
2023-04-20T05:11:43.408Z,-0.35
2023-04-20T05:14:09.904Z,-0.24
2023-04-20T05:16:36.441Z,-0.01
2023-04-20T05:19:03.451Z,0.01
2023-04-20T05:21:29.909Z,0.11
2023-04-20T05:23:56.386Z,0.01
2023-04-20T05:26:22.861Z,0.07
2023-04-20T05:28:49.439Z,-0.14
2023-04-20T05:31:16.047Z,0.16
2023-04-20T05:33:43.332Z,0.35
2023-04-20T05:36:10.376Z,0.48
2023-04-20T05:38:36.873Z,0.41
2023-04-20T05:41:03.366Z,0.62
2023-04-20T05:43:29.822Z,0.45
2023-04-20T05:45:56.353Z,0.62
2023-04-20T05:48:22.883Z,0.89
2023-04-20T05:50:49.311Z,1.03
2023-04-20T05:53:15.750Z,1.32
2023-04-20T05:55:42.204Z,1.56
2023-04-20T05:58:08.641Z,1.71
2023-04-20T06:00:35.585Z,1.80
2023-04-20T06:03:02.249Z,2.03
2023-04-20T06:05:29.051Z,2.39
2023-04-20T06:07:55.669Z,2.79
2023-04-20T06:10:22.231Z,2.77
2023-04-20T06:12:48.757Z,3.05
2023-04-20T06:15:15.405Z,3.15
2023-04-20T06:17:42.002Z,3.31
2023-04-20T06:20:11.704Z,3.53
2023-04-20T06:22:44.020Z,3.46
2023-04-20T06:25:10.703Z,3.68
2023-04-20T06:27:37.161Z,3.74
2023-04-20T06:30:04.202Z,3.82
2023-04-20T06:32:30.652Z,3.83
2023-04-20T06:34:57.302Z,3.78
2023-04-20T06:37:23.933Z,4.11
2023-04-20T06:39:54.858Z,4.25
2023-04-20T06:42:21.872Z,4.10
2023-04-20T06:44:49.398Z,4.34
2023-04-20T06:47:15.832Z,4.45
2023-04-20T06:49:43.414Z,4.50
2023-04-20T06:52:10.119Z,4.60
2023-04-20T06:54:36.698Z,4.62
2023-04-20T06:57:03.136Z,5.07
2023-04-20T06:59:29.637Z,5.07
2023-04-20T07:01:56.110Z,5.20
2023-04-20T07:04:22.609Z,5.18
2023-04-20T07:06:51.172Z,5.16
2023-04-20T07:09:19.517Z,5.32
2023-04-20T07:11:46.253Z,5.30
2023-04-20T07:14:12.728Z,5.36
2023-04-20T07:16:39.329Z,5.57
2023-04-20T07:19:05.955Z,5.64
2023-04-20T07:21:36.524Z,5.60
2023-04-20T07:24:03.592Z,5.63
2023-04-20T07:26:30.150Z,5.35
2023-04-20T07:28:56.614Z,5.28
2023-04-20T07:31:23.135Z,5.12
2023-04-20T07:33:49.561Z,5.27
2023-04-20T07:36:16.007Z,5.34
2023-04-20T07:38:42.465Z,5.19
2023-04-20T07:41:10.533Z,5.38
2023-04-20T07:43:37.392Z,5.45
2023-04-20T07:46:04.136Z,5.26
2023-04-20T07:48:31.933Z,5.58
2023-04-20T07:50:58.447Z,5.53
2023-04-20T07:53:25.004Z,5.60
2023-04-20T07:55:51.492Z,5.86
2023-04-20T07:58:17.996Z,6.08
2023-04-20T08:00:46.194Z,6.14
2023-04-20T08:03:13.182Z,6.25
2023-04-20T08:05:40.964Z,6.32
2023-04-20T08:08:07.630Z,6.55
2023-04-20T08:10:35.141Z,6.74
2023-04-20T08:13:01.719Z,7.26
2023-04-20T08:15:28.318Z,7.07
2023-04-20T08:17:54.889Z,7.33
2023-04-20T08:20:21.481Z,7.53
2023-04-20T08:22:49.233Z,7.65
2023-04-20T08:25:15.868Z,8.68
2023-04-20T08:27:42.322Z,8.63
2023-04-20T08:30:09.139Z,8.03
2023-04-20T08:32:35.856Z,7.21
2023-04-20T08:35:02.514Z,7.15
2023-04-20T08:37:31.301Z,7.11
2023-04-20T08:39:59.076Z,6.75
2023-04-20T08:42:25.712Z,6.30
2023-04-20T08:44:52.932Z,6.51
2023-04-20T08:47:20.928Z,6.28
2023-04-20T08:49:52.899Z,7.01
2023-04-20T08:52:19.405Z,8.17
2023-04-20T08:54:56.045Z,8.97
2023-04-20T08:57:22.913Z,10.83
2023-04-20T08:59:49.443Z,11.31
2023-04-20T09:02:16.164Z,9.67
2023-04-20T09:04:42.910Z,9.11
2023-04-20T09:07:20.832Z,8.19
2023-04-20T09:09:55.214Z,8.41
2023-04-20T09:12:22.870Z,9.34
2023-04-20T09:14:49.588Z,9.77
2023-04-20T09:17:17.926Z,10.17
2023-04-20T09:19:46.171Z,9.76
2023-04-20T09:22:12.763Z,10.07
2023-04-20T09:24:41.202Z,10.13
2023-04-20T09:27:18.609Z,10.46
2023-04-20T09:29:56.469Z,10.48
2023-04-20T09:32:23.910Z,10.69
2023-04-20T09:34:50.508Z,11.45
2023-04-20T09:37:17.748Z,10.44
2023-04-20T09:39:45.216Z,12.34
2023-04-20T09:42:13.598Z,12.70
2023-04-20T09:44:40.408Z,12.04
2023-04-20T09:47:08.519Z,12.53
2023-04-20T09:49:35.618Z,13.18
2023-04-20T09:52:03.668Z,13.67
2023-04-20T09:54:31.495Z,14.39
2023-04-20T09:57:02.050Z,13.17
2023-04-20T09:59:29.735Z,12.15
2023-04-20T10:01:56.490Z,13.48
2023-04-20T10:04:23.734Z,14.44
2023-04-20T10:06:58.105Z,13.84
2023-04-20T10:09:26.242Z,12.82
2023-04-20T10:11:54.633Z,12.71
2023-04-20T10:14:25.059Z,13.06
2023-04-20T10:17:05.131Z,12.99
2023-04-20T10:19:42.561Z,13.19
2023-04-20T10:22:10.975Z,12.18
2023-04-20T10:24:38.332Z,11.99
2023-04-20T10:27:16.731Z,12.16
2023-04-20T10:29:43.237Z,13.73
2023-04-20T10:32:21.811Z,14.43
2023-04-20T10:34:48.324Z,13.07
2023-04-20T10:37:14.797Z,12.63
2023-04-20T10:39:48.275Z,15.21
2023-04-20T10:42:17.442Z,14.95
2023-04-20T10:44:51.458Z,14.15
2023-04-20T10:47:26.228Z,12.79
2023-04-20T10:49:53.044Z,14.08
2023-04-20T10:52:32.499Z,13.78
2023-04-20T10:54:59.025Z,13.82
2023-04-20T10:57:25.491Z,12.77
2023-04-20T10:59:51.924Z,13.20
2023-04-20T11:02:18.595Z,13.56
2023-04-20T11:04:45.787Z,14.81
2023-04-20T11:07:15.084Z,14.77
2023-04-20T11:09:43.156Z,14.91
2023-04-20T11:12:14.745Z,15.63
2023-04-20T11:14:53.726Z,15.29
2023-04-20T11:17:20.772Z,16.63
2023-04-20T11:19:47.444Z,13.61
2023-04-20T11:22:23.455Z,13.74
2023-04-20T11:24:50.281Z,14.37
2023-04-20T11:27:22.129Z,13.61
2023-04-20T11:29:58.083Z,13.48
2023-04-20T11:32:24.857Z,13.09
2023-04-20T11:35:08.706Z,12.11
2023-04-20T11:37:46.979Z,11.81
2023-04-20T11:40:15.054Z,10.97
2023-04-20T11:42:41.740Z,10.92
2023-04-20T11:45:08.899Z,11.08
2023-04-20T11:47:35.406Z,11.10
2023-04-20T11:50:01.963Z,11.03
2023-04-20T11:52:28.377Z,10.87
2023-04-20T11:54:55.019Z,12.67
2023-04-20T11:57:23.773Z,15.67
2023-04-20T11:59:50.248Z,15.39
2023-04-20T12:02:16.812Z,13.61
2023-04-20T12:04:43.560Z,12.63
2023-04-20T12:07:10.248Z,12.60
2023-04-20T12:09:38.468Z,12.96
2023-04-20T12:12:05.917Z,12.54
2023-04-20T12:14:36.431Z,12.62
2023-04-20T12:17:04.512Z,11.50
2023-04-20T12:19:31.631Z,10.66
2023-04-20T12:21:58.119Z,10.12
2023-04-20T12:24:24.550Z,10.03
2023-04-20T12:26:51.017Z,9.93
2023-04-20T12:29:17.659Z,10.13
2023-04-20T12:31:44.321Z,10.23
2023-04-20T12:34:11.312Z,10.33
2023-04-20T12:36:37.867Z,10.83
2023-04-20T12:39:04.557Z,10.83
2023-04-20T12:41:31.352Z,10.73
2023-04-20T12:43:57.813Z,10.43
2023-04-20T12:46:25.288Z,9.91
2023-04-20T12:48:51.996Z,10.28
2023-04-20T12:51:18.467Z,10.53
2023-04-20T12:53:45.241Z,10.20
2023-04-20T12:56:11.878Z,10.03
2023-04-20T12:58:38.341Z,10.67
2023-04-20T13:01:04.858Z,10.84
2023-04-20T13:03:31.721Z,11.31
2023-04-20T13:05:59.631Z,11.47
2023-04-20T13:08:26.116Z,10.72
2023-04-20T13:10:52.776Z,10.45
2023-04-20T13:13:19.204Z,9.92
2023-04-20T13:15:45.655Z,9.86
2023-04-20T13:18:13.550Z,9.14
2023-04-20T13:20:40.712Z,6.88
2023-04-20T13:23:07.405Z,5.94
2023-04-20T13:25:34.101Z,5.51
2023-04-20T13:28:02.853Z,5.51
2023-04-20T13:30:29.561Z,5.28
2023-04-20T13:32:56.388Z,5.44
2023-04-20T13:35:23.798Z,5.30
2023-04-20T13:37:50.460Z,5.25
2023-04-20T13:40:16.981Z,5.37
2023-04-20T13:42:43.484Z,5.43
2023-04-20T13:45:10.494Z,5.35
2023-04-20T13:47:38.603Z,5.40
2023-04-20T13:50:06.928Z,5.51
2023-04-20T13:52:33.461Z,5.66
2023-04-20T13:54:59.956Z,5.67
2023-04-20T13:57:26.437Z,5.89
2023-04-20T13:59:53.118Z,6.15
2023-04-20T14:02:19.660Z,6.30
2023-04-20T14:04:46.304Z,6.53
2023-04-20T14:07:12.806Z,6.66
2023-04-20T14:09:39.272Z,6.88
2023-04-20T14:12:05.872Z,7.28
2023-04-20T14:14:33.399Z,7.41
2023-04-20T14:17:05.448Z,7.57
2023-04-20T14:19:46.898Z,7.36
2023-04-20T14:22:13.831Z,7.23
2023-04-20T14:24:41.307Z,7.48
2023-04-20T14:27:08.000Z,7.42
2023-04-20T14:29:34.525Z,7.34
2023-04-20T14:32:01.052Z,8.03
2023-04-20T14:34:27.516Z,7.70
2023-04-20T14:36:54.038Z,7.40
2023-04-20T14:39:20.838Z,7.43
2023-04-20T14:41:47.327Z,7.35
2023-04-20T14:44:13.835Z,7.64
2023-04-20T14:46:42.434Z,8.08
2023-04-20T14:49:09.383Z,8.31
2023-04-20T14:51:35.840Z,8.25
2023-04-20T14:54:02.293Z,8.83
2023-04-20T14:56:28.857Z,9.22
2023-04-20T14:58:57.121Z,9.32
2023-04-20T15:01:23.644Z,9.26
2023-04-20T15:03:50.400Z,9.42
2023-04-20T15:06:17.251Z,9.28
2023-04-20T15:08:43.737Z,9.29
2023-04-20T15:11:10.195Z,9.04
2023-04-20T15:13:40.948Z,8.95
2023-04-20T15:16:08.346Z,8.43
2023-04-20T15:18:35.067Z,8.27
2023-04-20T15:21:01.632Z,7.70
2023-04-20T15:23:28.053Z,7.79
2023-04-20T15:25:54.533Z,7.60
2023-04-20T15:28:21.091Z,7.37
2023-04-20T15:30:47.586Z,7.17
2023-04-20T15:33:14.105Z,6.99
2023-04-20T15:35:40.675Z,6.95
2023-04-20T15:38:07.135Z,6.76
2023-04-20T15:40:33.670Z,6.85
2023-04-20T15:43:00.463Z,6.82
2023-04-20T15:45:26.932Z,6.91
2023-04-20T15:47:53.506Z,6.89
2023-04-20T15:50:20.626Z,6.94
2023-04-20T15:52:49.694Z,6.92
2023-04-20T15:55:16.882Z,6.94
2023-04-20T15:57:44.678Z,6.95
2023-04-20T16:00:12.420Z,6.86
2023-04-20T16:02:40.413Z,6.74
2023-04-20T16:05:07.732Z,6.80
2023-04-20T16:07:34.333Z,6.77
2023-04-20T16:10:02.105Z,6.72
2023-04-20T16:12:28.759Z,6.78
2023-04-20T16:14:55.546Z,6.83
2023-04-20T16:17:22.209Z,6.87
2023-04-20T16:19:48.778Z,6.98
2023-04-20T16:22:15.216Z,6.98
2023-04-20T16:24:41.654Z,6.91
2023-04-20T16:27:08.158Z,7.01
2023-04-20T16:29:34.682Z,7.03
2023-04-20T16:32:01.142Z,6.97
2023-04-20T16:34:27.559Z,6.77
2023-04-20T16:36:53.986Z,6.93
2023-04-20T16:39:20.406Z,6.95
2023-04-20T16:41:46.867Z,6.89
2023-04-20T16:44:13.662Z,6.86
2023-04-20T16:46:41.898Z,7.02
2023-04-20T16:49:09.049Z,6.98
2023-04-20T16:51:35.502Z,6.85
2023-04-20T16:54:01.940Z,6.94
2023-04-20T16:56:28.406Z,7.12
2023-04-20T16:58:54.834Z,7.01
2023-04-20T17:01:21.376Z,7.11
2023-04-20T17:03:48.229Z,7.16
2023-04-20T17:06:14.868Z,7.15
2023-04-20T17:08:41.739Z,7.12
2023-04-20T17:11:08.276Z,7.17
2023-04-20T17:13:34.835Z,7.11
2023-04-20T17:16:01.489Z,7.16
2023-04-20T17:18:27.987Z,6.99
2023-04-20T17:20:57.176Z,6.90
2023-04-20T17:23:23.955Z,7.03
2023-04-20T17:25:51.274Z,6.90
2023-04-20T17:28:17.937Z,6.85
2023-04-20T17:30:44.729Z,6.76
2023-04-20T17:33:14.818Z,6.86
2023-04-20T17:35:41.536Z,6.81
2023-04-20T17:38:07.983Z,7.05
2023-04-20T17:40:34.830Z,7.05
2023-04-20T17:43:01.729Z,6.91
2023-04-20T17:45:28.178Z,7.00
2023-04-20T17:47:54.820Z,6.91
2023-04-20T17:50:22.596Z,6.92
2023-04-20T17:52:49.230Z,7.08
2023-04-20T17:55:15.808Z,6.92
2023-04-20T17:57:42.314Z,6.87
2023-04-20T18:00:11.590Z,6.83
2023-04-20T18:02:41.012Z,6.91
2023-04-20T18:05:07.921Z,6.79
2023-04-20T18:07:34.630Z,6.79
2023-04-20T18:10:01.173Z,6.68
2023-04-20T18:12:27.613Z,6.69
2023-04-20T18:14:54.048Z,6.98
2023-04-20T18:17:20.693Z,6.91
2023-04-20T18:19:47.214Z,6.79
2023-04-20T18:22:14.182Z,6.54
2023-04-20T18:24:40.726Z,6.45
2023-04-20T18:27:07.286Z,6.40
2023-04-20T18:29:33.763Z,6.36
2023-04-20T18:32:01.183Z,6.50
2023-04-20T18:34:30.894Z,6.67
2023-04-20T18:36:58.184Z,6.44
2023-04-20T18:39:25.222Z,6.36
2023-04-20T18:41:51.691Z,6.38
2023-04-20T18:44:18.538Z,6.39
2023-04-20T18:46:45.390Z,6.34
2023-04-20T18:49:12.032Z,6.40
2023-04-20T18:51:38.511Z,6.39
2023-04-20T18:54:05.115Z,6.41
2023-04-20T18:56:32.184Z,6.43
2023-04-20T18:58:59.451Z,6.38
2023-04-20T19:01:26.321Z,6.44
2023-04-20T19:03:53.200Z,6.22
2023-04-20T19:06:19.854Z,6.13
2023-04-20T19:08:46.469Z,6.20
2023-04-20T19:11:13.068Z,6.26
2023-04-20T19:13:44.329Z,6.19
2023-04-20T19:16:12.229Z,6.12
2023-04-20T19:18:39.404Z,6.05
2023-04-20T19:21:06.152Z,6.04
2023-04-20T19:23:32.916Z,5.91
2023-04-20T19:25:59.397Z,5.87
2023-04-20T19:28:26.042Z,6.01
2023-04-20T19:30:52.566Z,6.07
2023-04-20T19:33:20.991Z,5.97
2023-04-20T19:35:51.062Z,5.68
2023-04-20T19:38:18.980Z,5.62
2023-04-20T19:40:46.658Z,5.61
2023-04-20T19:43:13.323Z,5.73
2023-04-20T19:45:40.792Z,5.67
2023-04-20T19:48:07.531Z,5.57
2023-04-20T19:50:34.129Z,5.68
2023-04-20T19:53:00.707Z,5.73
2023-04-20T19:55:27.232Z,5.58
2023-04-20T19:57:53.686Z,5.76
2023-04-20T20:00:20.364Z,5.83
2023-04-20T20:02:46.987Z,5.92
2023-04-20T20:05:14.797Z,5.85
2023-04-20T20:07:41.410Z,5.85
2023-04-20T20:10:08.436Z,5.77
2023-04-20T20:12:35.136Z,5.82
2023-04-20T20:15:03.336Z,5.79
2023-04-20T20:17:29.842Z,5.91
2023-04-20T20:19:56.319Z,5.96
2023-04-20T20:22:22.826Z,5.81
2023-04-20T20:24:51.113Z,5.87
2023-04-20T20:27:18.138Z,5.95
2023-04-20T20:29:44.796Z,6.12
2023-04-20T20:32:11.293Z,6.01
2023-04-20T20:34:37.737Z,5.98
2023-04-20T20:37:04.390Z,6.05
2023-04-20T20:39:31.393Z,5.90
2023-04-20T20:41:58.048Z,5.88
2023-04-20T20:44:25.264Z,5.94
2023-04-20T20:46:51.779Z,5.85
2023-04-20T20:49:18.634Z,5.64
2023-04-20T20:51:45.542Z,5.78
2023-04-20T20:54:12.148Z,5.78
2023-04-20T20:56:38.600Z,5.80
2023-04-20T20:59:05.139Z,5.72
2023-04-20T21:01:31.690Z,5.87
2023-04-20T21:03:58.240Z,5.72
2023-04-20T21:06:24.972Z,5.69
2023-04-20T21:08:51.436Z,5.75
2023-04-20T21:11:17.976Z,5.90
2023-04-20T21:13:44.531Z,5.86
2023-04-20T21:16:11.008Z,5.86
2023-04-20T21:18:37.516Z,5.84
2023-04-20T21:21:04.147Z,5.82
2023-04-20T21:23:30.671Z,5.74
2023-04-20T21:25:57.131Z,5.80
2023-04-20T21:28:23.585Z,5.78
2023-04-20T21:30:50.012Z,5.76
2023-04-20T21:33:16.793Z,5.73
2023-04-20T21:35:43.279Z,5.65
2023-04-20T21:38:09.800Z,5.79
2023-04-20T21:40:36.255Z,5.69
2023-04-20T21:43:02.719Z,5.81
2023-04-20T21:45:29.159Z,5.67
2023-04-20T21:47:55.720Z,5.54
2023-04-20T21:50:26.900Z,5.64
2023-04-20T21:52:54.738Z,5.58
2023-04-20T21:55:21.366Z,5.56
2023-04-20T21:57:47.948Z,5.60
2023-04-20T22:00:15.420Z,5.57
2023-04-20T22:02:42.120Z,5.48
2023-04-20T22:05:09.594Z,5.52
2023-04-20T22:07:36.107Z,5.55
2023-04-20T22:10:03.151Z,5.46
2023-04-20T22:12:39.153Z,5.41
2023-04-20T22:15:11.258Z,5.38
2023-04-20T22:17:38.140Z,5.45
2023-04-20T22:20:09.609Z,5.33
2023-04-20T22:22:37.652Z,5.20
2023-04-20T22:25:05.164Z,5.03
2023-04-20T22:27:32.303Z,5.02
2023-04-20T22:29:58.872Z,4.91
2023-04-20T22:32:25.428Z,4.84
2023-04-20T22:34:51.998Z,4.76
2023-04-20T22:37:18.483Z,4.72
2023-04-20T22:39:45.064Z,4.63
2023-04-20T22:42:11.529Z,4.61
2023-04-20T22:44:37.976Z,4.57
2023-04-20T22:47:04.785Z,4.53
2023-04-20T22:49:31.816Z,4.48
2023-04-20T22:51:58.370Z,4.37
2023-04-20T22:54:25.152Z,4.35
2023-04-20T22:56:51.758Z,4.36
2023-04-20T22:59:18.562Z,4.28
2023-04-20T23:01:45.467Z,4.29
2023-04-20T23:04:12.164Z,4.20
2023-04-20T23:06:38.721Z,4.17
2023-04-20T23:09:08.401Z,4.16
2023-04-20T23:11:38.708Z,4.19
2023-04-20T23:14:06.493Z,4.19
2023-04-20T23:16:33.525Z,4.27
2023-04-20T23:19:00.547Z,4.44
2023-04-20T23:21:29.759Z,4.46
2023-04-20T23:23:57.671Z,4.59
2023-04-20T23:26:24.483Z,4.63
2023-04-20T23:28:53.722Z,4.83
2023-04-20T23:31:20.535Z,4.98
2023-04-20T23:33:47.979Z,5.02
2023-04-20T23:36:15.142Z,5.13
2023-04-20T23:38:41.765Z,5.09
2023-04-20T23:41:13.059Z,5.25
2023-04-20T23:43:39.767Z,5.30
2023-04-20T23:46:07.089Z,5.29
2023-04-20T23:48:34.281Z,5.36
2023-04-20T23:51:01.626Z,5.38
2023-04-20T23:53:28.276Z,5.40
2023-04-20T23:55:59.755Z,5.42
2023-04-20T23:58:27.400Z,5.49
